sensor_id;sensor_type;location;lat;lon;timestamp;P1;durP1;ratioP1;P2;durP2;ratioP2
51266;SDS011;37338;47.426;19.204;2023-12-29T00:00:45;79.23;;;46.87;;
51266;SDS011;37338;47.426;19.204;2023-12-29T00:03:10;72.13;;;46.73;;
51266;SDS011;37338;47.426;19.204;2023-12-29T00:05:35;71.57;;;45.73;;
51266;SDS011;37338;47.426;19.204;2023-12-29T00:08:01;77.73;;;44.77;;
51266;SDS011;37338;47.426;19.204;2023-12-29T00:10:26;73.37;;;44.37;;
51266;SDS011;37338;47.426;19.204;2023-12-29T00:12:52;72.00;;;43.27;;
51266;SDS011;37338;47.426;19.204;2023-12-29T00:15:17;72.63;;;44.07;;
51266;SDS011;37338;47.426;19.204;2023-12-29T00:17:43;69.67;;;41.70;;
51266;SDS011;37338;47.426;19.204;2023-12-29T00:20:09;71.63;;;43.67;;
51266;SDS011;37338;47.426;19.204;2023-12-29T00:22:34;61.80;;;42.07;;
51266;SDS011;37338;47.426;19.204;2023-12-29T00:25:00;69.33;;;44.03;;
51266;SDS011;37338;47.426;19.204;2023-12-29T00:27:25;74.70;;;43.10;;
51266;SDS011;37338;47.426;19.204;2023-12-29T00:29:50;72.17;;;43.97;;
51266;SDS011;37338;47.426;19.204;2023-12-29T00:32:16;68.27;;;41.87;;
51266;SDS011;37338;47.426;19.204;2023-12-29T00:34:41;67.43;;;43.97;;
51266;SDS011;37338;47.426;19.204;2023-12-29T00:37:06;75.47;;;45.43;;
51266;SDS011;37338;47.426;19.204;2023-12-29T00:39:33;75.73;;;46.43;;
51266;SDS011;37338;47.426;19.204;2023-12-29T00:42:03;74.27;;;43.10;;
51266;SDS011;37338;47.426;19.204;2023-12-29T00:44:29;70.00;;;44.40;;
51266;SDS011;37338;47.426;19.204;2023-12-29T00:46:55;68.37;;;44.50;;
51266;SDS011;37338;47.426;19.204;2023-12-29T00:49:20;66.30;;;41.17;;
51266;SDS011;37338;47.426;19.204;2023-12-29T00:51:46;75.90;;;43.43;;
51266;SDS011;37338;47.426;19.204;2023-12-29T00:54:12;73.50;;;43.67;;
51266;SDS011;37338;47.426;19.204;2023-12-29T00:56:37;83.20;;;46.60;;
51266;SDS011;37338;47.426;19.204;2023-12-29T00:59:03;86.03;;;48.37;;
51266;SDS011;37338;47.426;19.204;2023-12-29T01:01:28;170.53;;;56.47;;
51266;SDS011;37338;47.426;19.204;2023-12-29T01:03:57;129.53;;;58.07;;
51266;SDS011;37338;47.426;19.204;2023-12-29T01:06:23;140.93;;;54.90;;
51266;SDS011;37338;47.426;19.204;2023-12-29T01:08:48;142.87;;;57.13;;
51266;SDS011;37338;47.426;19.204;2023-12-29T01:11:13;171.67;;;60.33;;
51266;SDS011;37338;47.426;19.204;2023-12-29T01:13:38;189.47;;;60.93;;
51266;SDS011;37338;47.426;19.204;2023-12-29T01:16:04;168.60;;;60.30;;
51266;SDS011;37338;47.426;19.204;2023-12-29T01:18:29;272.37;;;62.73;;
51266;SDS011;37338;47.426;19.204;2023-12-29T01:20:54;230.77;;;58.20;;
51266;SDS011;37338;47.426;19.204;2023-12-29T01:23:20;292.17;;;61.53;;
51266;SDS011;37338;47.426;19.204;2023-12-29T01:25:45;194.70;;;57.03;;
51266;SDS011;37338;47.426;19.204;2023-12-29T01:28:11;187.77;;;54.90;;
51266;SDS011;37338;47.426;19.204;2023-12-29T01:30:36;202.57;;;59.10;;
51266;SDS011;37338;47.426;19.204;2023-12-29T01:33:01;149.23;;;53.53;;
51266;SDS011;37338;47.426;19.204;2023-12-29T01:35:27;157.07;;;56.40;;
51266;SDS011;37338;47.426;19.204;2023-12-29T01:37:52;151.03;;;56.73;;
51266;SDS011;37338;47.426;19.204;2023-12-29T01:40:17;155.10;;;55.20;;
51266;SDS011;37338;47.426;19.204;2023-12-29T01:42:43;168.67;;;54.33;;
51266;SDS011;37338;47.426;19.204;2023-12-29T01:45:13;151.90;;;55.97;;
51266;SDS011;37338;47.426;19.204;2023-12-29T01:47:51;166.98;;;51.53;;
51266;SDS011;37338;47.426;19.204;2023-12-29T01:50:21;166.00;;;52.33;;
51266;SDS011;37338;47.426;19.204;2023-12-29T01:52:47;134.23;;;54.47;;
51266;SDS011;37338;47.426;19.204;2023-12-29T01:55:15;115.30;;;55.63;;
51266;SDS011;37338;47.426;19.204;2023-12-29T01:57:41;133.40;;;58.83;;
51266;SDS011;37338;47.426;19.204;2023-12-29T02:00:07;202.43;;;62.07;;
51266;SDS011;37338;47.426;19.204;2023-12-29T02:02:33;202.87;;;60.47;;
51266;SDS011;37338;47.426;19.204;2023-12-29T02:04:59;180.93;;;64.80;;
51266;SDS011;37338;47.426;19.204;2023-12-29T02:07:25;272.37;;;62.17;;
51266;SDS011;37338;47.426;19.204;2023-12-29T02:09:54;254.83;;;66.23;;
51266;SDS011;37338;47.426;19.204;2023-12-29T02:12:19;133.30;;;60.57;;
51266;SDS011;37338;47.426;19.204;2023-12-29T02:14:45;191.53;;;55.93;;
51266;SDS011;37338;47.426;19.204;2023-12-29T02:17:11;155.90;;;55.73;;
51266;SDS011;37338;47.426;19.204;2023-12-29T02:19:46;189.53;;;51.40;;
51266;SDS011;37338;47.426;19.204;2023-12-29T02:22:14;169.70;;;49.43;;
51266;SDS011;37338;47.426;19.204;2023-12-29T02:24:39;206.30;;;47.10;;
51266;SDS011;37338;47.426;19.204;2023-12-29T02:32:33;228.40;;;46.20;;
51266;SDS011;37338;47.426;19.204;2023-12-29T02:34:59;135.23;;;47.77;;
51266;SDS011;37338;47.426;19.204;2023-12-29T02:37:26;183.20;;;52.90;;
51266;SDS011;37338;47.426;19.204;2023-12-29T02:39:51;297.27;;;57.47;;
51266;SDS011;37338;47.426;19.204;2023-12-29T02:42:17;208.40;;;56.10;;
51266;SDS011;37338;47.426;19.204;2023-12-29T02:44:42;272.47;;;55.10;;
51266;SDS011;37338;47.426;19.204;2023-12-29T02:47:08;352.23;;;55.67;;
51266;SDS011;37338;47.426;19.204;2023-12-29T02:49:33;320.97;;;51.17;;
51266;SDS011;37338;47.426;19.204;2023-12-29T02:51:58;422.80;;;58.23;;
51266;SDS011;37338;47.426;19.204;2023-12-29T02:54:24;363.30;;;51.33;;
51266;SDS011;37338;47.426;19.204;2023-12-29T02:56:49;419.07;;;57.40;;
51266;SDS011;37338;47.426;19.204;2023-12-29T02:59:14;226.83;;;46.97;;
51266;SDS011;37338;47.426;19.204;2023-12-29T03:01:39;272.17;;;45.30;;
51266;SDS011;37338;47.426;19.204;2023-12-29T03:04:05;430.60;;;49.40;;
51266;SDS011;37338;47.426;19.204;2023-12-29T03:06:30;395.93;;;48.17;;
51266;SDS011;37338;47.426;19.204;2023-12-29T03:08:56;205.77;;;42.80;;
51266;SDS011;37338;47.426;19.204;2023-12-29T03:11:21;381.87;;;47.40;;
51266;SDS011;37338;47.426;19.204;2023-12-29T03:13:46;208.07;;;42.73;;
51266;SDS011;37338;47.426;19.204;2023-12-29T03:16:12;168.53;;;41.57;;
51266;SDS011;37338;47.426;19.204;2023-12-29T03:18:37;225.50;;;47.50;;
51266;SDS011;37338;47.426;19.204;2023-12-29T03:21:04;147.47;;;42.77;;
51266;SDS011;37338;47.426;19.204;2023-12-29T03:23:30;157.60;;;39.03;;
51266;SDS011;37338;47.426;19.204;2023-12-29T03:25:56;248.93;;;41.77;;
51266;SDS011;37338;47.426;19.204;2023-12-29T03:28:21;139.43;;;39.27;;
51266;SDS011;37338;47.426;19.204;2023-12-29T03:30:46;155.03;;;41.50;;
51266;SDS011;37338;47.426;19.204;2023-12-29T03:33:13;245.90;;;41.80;;
51266;SDS011;37338;47.426;19.204;2023-12-29T03:35:38;232.23;;;38.30;;
51266;SDS011;37338;47.426;19.204;2023-12-29T03:38:04;180.50;;;35.07;;
51266;SDS011;37338;47.426;19.204;2023-12-29T03:40:29;204.70;;;43.00;;
51266;SDS011;37338;47.426;19.204;2023-12-29T03:42:54;166.33;;;43.10;;
51266;SDS011;37338;47.426;19.204;2023-12-29T03:45:20;143.87;;;41.00;;
51266;SDS011;37338;47.426;19.204;2023-12-29T03:47:45;160.00;;;41.13;;
51266;SDS011;37338;47.426;19.204;2023-12-29T03:50:10;145.13;;;38.53;;
51266;SDS011;37338;47.426;19.204;2023-12-29T03:52:36;84.33;;;36.43;;
51266;SDS011;37338;47.426;19.204;2023-12-29T03:55:01;106.97;;;38.77;;
51266;SDS011;37338;47.426;19.204;2023-12-29T03:57:26;139.63;;;38.47;;
51266;SDS011;37338;47.426;19.204;2023-12-29T03:59:51;107.53;;;37.60;;
51266;SDS011;37338;47.426;19.204;2023-12-29T04:02:17;143.10;;;36.63;;
51266;SDS011;37338;47.426;19.204;2023-12-29T04:04:42;142.20;;;41.07;;
51266;SDS011;37338;47.426;19.204;2023-12-29T04:07:08;119.70;;;40.33;;
51266;SDS011;37338;47.426;19.204;2023-12-29T04:09:33;112.27;;;37.33;;
51266;SDS011;37338;47.426;19.204;2023-12-29T04:11:58;132.87;;;39.73;;
51266;SDS011;37338;47.426;19.204;2023-12-29T04:14:24;158.80;;;35.63;;
51266;SDS011;37338;47.426;19.204;2023-12-29T04:16:49;125.67;;;36.00;;
51266;SDS011;37338;47.426;19.204;2023-12-29T04:19:14;108.67;;;36.73;;
51266;SDS011;37338;47.426;19.204;2023-12-29T04:21:40;78.93;;;35.90;;
51266;SDS011;37338;47.426;19.204;2023-12-29T04:24:05;68.13;;;37.17;;
51266;SDS011;37338;47.426;19.204;2023-12-29T04:26:35;99.93;;;37.33;;
51266;SDS011;37338;47.426;19.204;2023-12-29T04:29:01;79.17;;;33.80;;
51266;SDS011;37338;47.426;19.204;2023-12-29T04:31:26;69.67;;;33.00;;
51266;SDS011;37338;47.426;19.204;2023-12-29T04:33:51;137.47;;;39.50;;
51266;SDS011;37338;47.426;19.204;2023-12-29T04:36:17;85.40;;;33.73;;
51266;SDS011;37338;47.426;19.204;2023-12-29T04:38:42;218.70;;;42.90;;
51266;SDS011;37338;47.426;19.204;2023-12-29T04:41:08;82.27;;;30.57;;
51266;SDS011;37338;47.426;19.204;2023-12-29T04:43:33;78.20;;;31.27;;
51266;SDS011;37338;47.426;19.204;2023-12-29T04:45:58;78.97;;;31.93;;
51266;SDS011;37338;47.426;19.204;2023-12-29T04:48:24;148.13;;;33.73;;
51266;SDS011;37338;47.426;19.204;2023-12-29T04:50:49;98.57;;;34.87;;
51266;SDS011;37338;47.426;19.204;2023-12-29T04:53:14;63.70;;;31.57;;
51266;SDS011;37338;47.426;19.204;2023-12-29T04:55:39;96.27;;;32.37;;
51266;SDS011;37338;47.426;19.204;2023-12-29T04:58:05;72.80;;;32.47;;
51266;SDS011;37338;47.426;19.204;2023-12-29T05:00:31;98.47;;;34.90;;
51266;SDS011;37338;47.426;19.204;2023-12-29T05:02:56;134.70;;;35.13;;
51266;SDS011;37338;47.426;19.204;2023-12-29T05:05:21;112.83;;;33.37;;
51266;SDS011;37338;47.426;19.204;2023-12-29T05:07:47;235.60;;;36.57;;
51266;SDS011;37338;47.426;19.204;2023-12-29T05:10:12;106.70;;;36.00;;
51266;SDS011;37338;47.426;19.204;2023-12-29T05:12:37;185.10;;;36.80;;
51266;SDS011;37338;47.426;19.204;2023-12-29T05:15:03;150.87;;;34.60;;
51266;SDS011;37338;47.426;19.204;2023-12-29T05:17:29;140.67;;;37.63;;
51266;SDS011;37338;47.426;19.204;2023-12-29T05:19:54;278.50;;;41.57;;
51266;SDS011;37338;47.426;19.204;2023-12-29T05:22:20;167.73;;;37.93;;
51266;SDS011;37338;47.426;19.204;2023-12-29T05:24:45;269.27;;;43.17;;
51266;SDS011;37338;47.426;19.204;2023-12-29T05:27:10;176.07;;;43.53;;
51266;SDS011;37338;47.426;19.204;2023-12-29T05:29:36;177.70;;;39.53;;
51266;SDS011;37338;47.426;19.204;2023-12-29T05:32:01;134.47;;;37.80;;
51266;SDS011;37338;47.426;19.204;2023-12-29T05:34:27;94.93;;;36.30;;
51266;SDS011;37338;47.426;19.204;2023-12-29T05:36:53;143.60;;;38.43;;
51266;SDS011;37338;47.426;19.204;2023-12-29T05:39:18;95.63;;;35.53;;
51266;SDS011;37338;47.426;19.204;2023-12-29T05:41:43;81.87;;;37.50;;
51266;SDS011;37338;47.426;19.204;2023-12-29T05:44:09;99.67;;;34.17;;
51266;SDS011;37338;47.426;19.204;2023-12-29T05:46:34;92.83;;;35.90;;
51266;SDS011;37338;47.426;19.204;2023-12-29T05:48:59;59.13;;;35.53;;
51266;SDS011;37338;47.426;19.204;2023-12-29T05:51:25;95.70;;;34.53;;
51266;SDS011;37338;47.426;19.204;2023-12-29T05:53:50;65.70;;;33.20;;
51266;SDS011;37338;47.426;19.204;2023-12-29T05:56:16;79.27;;;35.03;;
51266;SDS011;37338;47.426;19.204;2023-12-29T05:58:41;104.10;;;36.67;;
51266;SDS011;37338;47.426;19.204;2023-12-29T06:01:10;68.47;;;34.60;;
51266;SDS011;37338;47.426;19.204;2023-12-29T06:03:35;73.60;;;34.40;;
51266;SDS011;37338;47.426;19.204;2023-12-29T06:06:01;74.63;;;32.67;;
51266;SDS011;37338;47.426;19.204;2023-12-29T06:08:26;95.67;;;32.40;;
51266;SDS011;37338;47.426;19.204;2023-12-29T06:10:52;87.77;;;31.43;;
51266;SDS011;37338;47.426;19.204;2023-12-29T06:13:17;121.70;;;33.20;;
51266;SDS011;37338;47.426;19.204;2023-12-29T06:15:42;87.13;;;29.33;;
51266;SDS011;37338;47.426;19.204;2023-12-29T06:18:08;64.07;;;29.13;;
51266;SDS011;37338;47.426;19.204;2023-12-29T06:20:33;47.03;;;30.00;;
51266;SDS011;37338;47.426;19.204;2023-12-29T06:22:59;59.87;;;32.33;;
51266;SDS011;37338;47.426;19.204;2023-12-29T06:25:24;82.67;;;31.47;;
51266;SDS011;37338;47.426;19.204;2023-12-29T06:27:49;78.73;;;31.07;;
51266;SDS011;37338;47.426;19.204;2023-12-29T06:30:15;65.87;;;28.87;;
51266;SDS011;37338;47.426;19.204;2023-12-29T06:32:40;161.20;;;31.23;;
51266;SDS011;37338;47.426;19.204;2023-12-29T06:35:06;133.77;;;33.70;;
51266;SDS011;37338;47.426;19.204;2023-12-29T06:37:32;82.30;;;29.67;;
51266;SDS011;37338;47.426;19.204;2023-12-29T06:39:58;151.17;;;31.17;;
51266;SDS011;37338;47.426;19.204;2023-12-29T06:42:23;136.93;;;30.00;;
51266;SDS011;37338;47.426;19.204;2023-12-29T06:44:48;137.10;;;30.27;;
51266;SDS011;37338;47.426;19.204;2023-12-29T06:47:14;106.97;;;29.17;;
51266;SDS011;37338;47.426;19.204;2023-12-29T06:49:39;252.83;;;31.33;;
51266;SDS011;37338;47.426;19.204;2023-12-29T06:52:04;202.20;;;29.67;;
51266;SDS011;37338;47.426;19.204;2023-12-29T06:54:30;228.83;;;31.67;;
51266;SDS011;37338;47.426;19.204;2023-12-29T06:56:56;237.50;;;29.50;;
51266;SDS011;37338;47.426;19.204;2023-12-29T06:59:21;191.60;;;25.80;;
51266;SDS011;37338;47.426;19.204;2023-12-29T07:01:47;202.87;;;25.67;;
51266;SDS011;37338;47.426;19.204;2023-12-29T07:04:12;143.23;;;29.53;;
51266;SDS011;37338;47.426;19.204;2023-12-29T07:06:38;105.83;;;29.80;;
51266;SDS011;37338;47.426;19.204;2023-12-29T07:09:04;107.87;;;26.97;;
51266;SDS011;37338;47.426;19.204;2023-12-29T07:11:29;106.40;;;29.90;;
51266;SDS011;37338;47.426;19.204;2023-12-29T07:13:55;69.00;;;25.73;;
51266;SDS011;37338;47.426;19.204;2023-12-29T07:16:20;281.80;;;36.47;;
51266;SDS011;37338;47.426;19.204;2023-12-29T07:18:46;328.60;;;34.00;;
51266;SDS011;37338;47.426;19.204;2023-12-29T07:21:11;148.30;;;30.70;;
51266;SDS011;37338;47.426;19.204;2023-12-29T07:23:37;211.80;;;33.07;;
51266;SDS011;37338;47.426;19.204;2023-12-29T07:26:03;138.07;;;35.17;;
51266;SDS011;37338;47.426;19.204;2023-12-29T07:28:29;158.20;;;31.93;;
51266;SDS011;37338;47.426;19.204;2023-12-29T07:30:54;117.60;;;35.60;;
51266;SDS011;37338;47.426;19.204;2023-12-29T07:33:19;148.33;;;38.27;;
51266;SDS011;37338;47.426;19.204;2023-12-29T07:35:45;148.53;;;38.07;;
51266;SDS011;37338;47.426;19.204;2023-12-29T07:38:10;132.47;;;39.40;;
51266;SDS011;37338;47.426;19.204;2023-12-29T07:40:35;187.10;;;32.13;;
51266;SDS011;37338;47.426;19.204;2023-12-29T07:43:01;218.93;;;36.00;;
51266;SDS011;37338;47.426;19.204;2023-12-29T07:45:26;93.93;;;26.17;;
51266;SDS011;37338;47.426;19.204;2023-12-29T07:47:51;172.23;;;27.07;;
51266;SDS011;37338;47.426;19.204;2023-12-29T07:50:17;168.63;;;30.97;;
51266;SDS011;37338;47.426;19.204;2023-12-29T07:52:42;144.17;;;26.90;;
51266;SDS011;37338;47.426;19.204;2023-12-29T07:55:09;200.30;;;29.77;;
51266;SDS011;37338;47.426;19.204;2023-12-29T07:57:34;70.97;;;25.03;;
51266;SDS011;37338;47.426;19.204;2023-12-29T07:59:59;85.83;;;24.57;;
51266;SDS011;37338;47.426;19.204;2023-12-29T08:02:25;182.00;;;30.37;;
51266;SDS011;37338;47.426;19.204;2023-12-29T08:04:51;118.90;;;29.37;;
51266;SDS011;37338;47.426;19.204;2023-12-29T08:07:16;177.23;;;29.33;;
51266;SDS011;37338;47.426;19.204;2023-12-29T08:09:41;91.27;;;31.43;;
51266;SDS011;37338;47.426;19.204;2023-12-29T08:12:07;74.80;;;26.57;;
51266;SDS011;37338;47.426;19.204;2023-12-29T08:14:32;76.27;;;27.00;;
51266;SDS011;37338;47.426;19.204;2023-12-29T08:16:57;46.87;;;26.03;;
51266;SDS011;37338;47.426;19.204;2023-12-29T08:19:23;99.43;;;31.90;;
51266;SDS011;37338;47.426;19.204;2023-12-29T08:21:48;46.87;;;31.93;;
51266;SDS011;37338;47.426;19.204;2023-12-29T08:24:13;66.33;;;34.23;;
51266;SDS011;37338;47.426;19.204;2023-12-29T08:26:46;73.10;;;33.53;;
51266;SDS011;37338;47.426;19.204;2023-12-29T08:29:13;67.05;;;32.70;;
51266;SDS011;37338;47.426;19.204;2023-12-29T08:31:38;48.43;;;31.30;;
51266;SDS011;37338;47.426;19.204;2023-12-29T08:34:04;78.13;;;38.47;;
51266;SDS011;37338;47.426;19.204;2023-12-29T08:36:29;70.17;;;42.00;;
51266;SDS011;37338;47.426;19.204;2023-12-29T08:38:54;53.87;;;36.73;;
51266;SDS011;37338;47.426;19.204;2023-12-29T08:41:21;54.43;;;35.70;;
51266;SDS011;37338;47.426;19.204;2023-12-29T08:43:46;49.07;;;33.17;;
51266;SDS011;37338;47.426;19.204;2023-12-29T08:46:11;46.10;;;31.77;;
51266;SDS011;37338;47.426;19.204;2023-12-29T08:48:37;41.73;;;31.97;;
51266;SDS011;37338;47.426;19.204;2023-12-29T08:51:02;44.13;;;31.33;;
51266;SDS011;37338;47.426;19.204;2023-12-29T08:53:27;44.63;;;32.80;;
51266;SDS011;37338;47.426;19.204;2023-12-29T08:55:56;41.80;;;29.03;;
51266;SDS011;37338;47.426;19.204;2023-12-29T08:58:21;38.40;;;28.87;;
51266;SDS011;37338;47.426;19.204;2023-12-29T09:00:46;42.57;;;31.60;;
51266;SDS011;37338;47.426;19.204;2023-12-29T09:03:12;41.73;;;30.00;;
51266;SDS011;37338;47.426;19.204;2023-12-29T09:05:37;44.50;;;30.97;;
51266;SDS011;37338;47.426;19.204;2023-12-29T09:08:02;47.70;;;32.67;;
51266;SDS011;37338;47.426;19.204;2023-12-29T09:10:28;47.63;;;33.10;;
51266;SDS011;37338;47.426;19.204;2023-12-29T09:12:53;45.10;;;32.93;;
51266;SDS011;37338;47.426;19.204;2023-12-29T09:15:19;56.80;;;37.47;;
51266;SDS011;37338;47.426;19.204;2023-12-29T09:17:44;56.90;;;39.63;;
51266;SDS011;37338;47.426;19.204;2023-12-29T09:20:10;52.37;;;37.27;;
51266;SDS011;37338;47.426;19.204;2023-12-29T09:22:35;55.60;;;38.47;;
51266;SDS011;37338;47.426;19.204;2023-12-29T09:25:01;98.93;;;39.07;;
51266;SDS011;37338;47.426;19.204;2023-12-29T09:27:26;55.47;;;37.27;;
51266;SDS011;37338;47.426;19.204;2023-12-29T09:29:51;66.27;;;40.00;;
51266;SDS011;37338;47.426;19.204;2023-12-29T09:32:16;59.87;;;40.80;;
51266;SDS011;37338;47.426;19.204;2023-12-29T09:34:42;69.93;;;44.17;;
51266;SDS011;37338;47.426;19.204;2023-12-29T09:37:07;69.87;;;46.70;;
51266;SDS011;37338;47.426;19.204;2023-12-29T09:39:33;69.60;;;47.10;;
51266;SDS011;37338;47.426;19.204;2023-12-29T09:41:58;81.27;;;49.60;;
51266;SDS011;37338;47.426;19.204;2023-12-29T09:44:25;68.87;;;46.80;;
51266;SDS011;37338;47.426;19.204;2023-12-29T09:46:53;69.80;;;48.03;;
51266;SDS011;37338;47.426;19.204;2023-12-29T09:49:19;68.20;;;48.23;;
51266;SDS011;37338;47.426;19.204;2023-12-29T09:51:45;68.10;;;49.87;;
51266;SDS011;37338;47.426;19.204;2023-12-29T09:54:11;75.17;;;52.87;;
51266;SDS011;37338;47.426;19.204;2023-12-29T09:56:38;72.93;;;52.50;;
51266;SDS011;37338;47.426;19.204;2023-12-29T09:59:03;68.00;;;48.70;;
51266;SDS011;37338;47.426;19.204;2023-12-29T10:01:29;69.10;;;48.90;;
51266;SDS011;37338;47.426;19.204;2023-12-29T10:03:55;71.00;;;49.97;;
51266;SDS011;37338;47.426;19.204;2023-12-29T10:06:23;60.60;;;44.80;;
51266;SDS011;37338;47.426;19.204;2023-12-29T10:08:49;45.97;;;34.90;;
51266;SDS011;37338;47.426;19.204;2023-12-29T10:11:18;45.53;;;28.67;;
51266;SDS011;37338;47.426;19.204;2023-12-29T10:13:45;34.50;;;22.33;;
51266;SDS011;37338;47.426;19.204;2023-12-29T10:16:15;27.53;;;20.60;;
51266;SDS011;37338;47.426;19.204;2023-12-29T10:18:58;30.33;;;20.30;;
51266;SDS011;37338;47.426;19.204;2023-12-29T10:21:31;26.17;;;19.77;;
51266;SDS011;37338;47.426;19.204;2023-12-29T10:24:03;31.33;;;21.23;;
51266;SDS011;37338;47.426;19.204;2023-12-29T10:26:33;26.53;;;19.67;;
51266;SDS011;37338;47.426;19.204;2023-12-29T10:28:59;27.80;;;20.17;;
51266;SDS011;37338;47.426;19.204;2023-12-29T10:31:25;23.97;;;17.93;;
51266;SDS011;37338;47.426;19.204;2023-12-29T10:33:51;21.23;;;17.83;;
51266;SDS011;37338;47.426;19.204;2023-12-29T10:36:17;21.23;;;18.20;;
51266;SDS011;37338;47.426;19.204;2023-12-29T10:38:42;22.97;;;18.17;;
51266;SDS011;37338;47.426;19.204;2023-12-29T10:41:17;21.43;;;17.97;;
51266;SDS011;37338;47.426;19.204;2023-12-29T10:43:44;22.90;;;17.97;;
51266;SDS011;37338;47.426;19.204;2023-12-29T10:46:12;21.07;;;16.40;;
51266;SDS011;37338;47.426;19.204;2023-12-29T10:48:38;23.67;;;17.47;;
51266;SDS011;37338;47.426;19.204;2023-12-29T10:51:04;23.47;;;17.50;;
51266;SDS011;37338;47.426;19.204;2023-12-29T10:53:30;23.50;;;18.97;;
51266;SDS011;37338;47.426;19.204;2023-12-29T10:55:56;21.47;;;18.33;;
51266;SDS011;37338;47.426;19.204;2023-12-29T10:58:23;18.93;;;12.87;;
51266;SDS011;37338;47.426;19.204;2023-12-29T11:00:54;18.50;;;13.37;;
51266;SDS011;37338;47.426;19.204;2023-12-29T11:03:44;20.13;;;13.57;;
51266;SDS011;37338;47.426;19.204;2023-12-29T11:06:09;22.40;;;14.27;;
51266;SDS011;37338;47.426;19.204;2023-12-29T11:08:35;20.73;;;16.53;;
51266;SDS011;37338;47.426;19.204;2023-12-29T11:11:00;23.53;;;15.43;;
51266;SDS011;37338;47.426;19.204;2023-12-29T11:13:26;23.77;;;16.90;;
51266;SDS011;37338;47.426;19.204;2023-12-29T11:15:53;19.57;;;16.73;;
51266;SDS011;37338;47.426;19.204;2023-12-29T11:18:19;22.20;;;17.63;;
51266;SDS011;37338;47.426;19.204;2023-12-29T11:20:44;29.20;;;16.17;;
51266;SDS011;37338;47.426;19.204;2023-12-29T11:23:11;22.57;;;16.47;;
51266;SDS011;37338;47.426;19.204;2023-12-29T11:25:40;24.23;;;15.87;;
51266;SDS011;37338;47.426;19.204;2023-12-29T11:28:08;22.77;;;17.30;;
51266;SDS011;37338;47.426;19.204;2023-12-29T11:30:35;24.17;;;17.43;;
51266;SDS011;37338;47.426;19.204;2023-12-29T11:33:03;26.93;;;19.27;;
51266;SDS011;37338;47.426;19.204;2023-12-29T11:35:41;22.37;;;18.20;;
51266;SDS011;37338;47.426;19.204;2023-12-29T11:43:57;23.27;;;17.53;;
51266;SDS011;37338;47.426;19.204;2023-12-29T11:48:58;24.50;;;16.90;;
51266;SDS011;37338;47.426;19.204;2023-12-29T11:51:31;28.27;;;16.60;;
51266;SDS011;37338;47.426;19.204;2023-12-29T11:54:01;21.60;;;18.38;;
51266;SDS011;37338;47.426;19.204;2023-12-29T11:56:38;23.63;;;18.53;;
51266;SDS011;37338;47.426;19.204;2023-12-29T11:59:15;26.17;;;19.50;;
51266;SDS011;37338;47.426;19.204;2023-12-29T12:01:55;23.77;;;16.47;;
51266;SDS011;37338;47.426;19.204;2023-12-29T12:09:47;21.87;;;16.27;;
51266;SDS011;37338;47.426;19.204;2023-12-29T12:12:14;26.30;;;18.07;;
51266;SDS011;37338;47.426;19.204;2023-12-29T12:14:48;23.97;;;17.30;;
51266;SDS011;37338;47.426;19.204;2023-12-29T12:17:26;22.23;;;16.03;;
51266;SDS011;37338;47.426;19.204;2023-12-29T12:20:03;23.37;;;17.50;;
51266;SDS011;37338;47.426;19.204;2023-12-29T12:22:31;19.43;;;14.97;;
51266;SDS011;37338;47.426;19.204;2023-12-29T12:24:58;20.40;;;14.77;;
51266;SDS011;37338;47.426;19.204;2023-12-29T12:27:24;23.87;;;15.20;;
51266;SDS011;37338;47.426;19.204;2023-12-29T12:29:54;22.27;;;14.93;;
51266;SDS011;37338;47.426;19.204;2023-12-29T12:32:22;21.80;;;14.77;;
51266;SDS011;37338;47.426;19.204;2023-12-29T12:34:48;19.57;;;13.77;;
51266;SDS011;37338;47.426;19.204;2023-12-29T12:37:18;17.60;;;14.23;;
51266;SDS011;37338;47.426;19.204;2023-12-29T12:39:47;20.07;;;14.70;;
51266;SDS011;37338;47.426;19.204;2023-12-29T12:42:13;17.10;;;14.20;;
51266;SDS011;37338;47.426;19.204;2023-12-29T12:44:38;20.43;;;15.23;;
51266;SDS011;37338;47.426;19.204;2023-12-29T12:47:07;22.63;;;14.80;;
51266;SDS011;37338;47.426;19.204;2023-12-29T12:49:35;22.07;;;15.23;;
51266;SDS011;37338;47.426;19.204;2023-12-29T12:52:00;19.37;;;15.67;;
51266;SDS011;37338;47.426;19.204;2023-12-29T12:54:27;24.23;;;15.77;;
51266;SDS011;37338;47.426;19.204;2023-12-29T12:56:52;20.70;;;16.77;;
51266;SDS011;37338;47.426;19.204;2023-12-29T12:59:18;20.80;;;15.97;;
51266;SDS011;37338;47.426;19.204;2023-12-29T13:01:43;20.90;;;15.10;;
51266;SDS011;37338;47.426;19.204;2023-12-29T13:04:08;22.90;;;15.60;;
51266;SDS011;37338;47.426;19.204;2023-12-29T13:06:38;18.67;;;14.60;;
51266;SDS011;37338;47.426;19.204;2023-12-29T13:09:08;22.13;;;16.67;;
51266;SDS011;37338;47.426;19.204;2023-12-29T13:11:36;19.17;;;14.67;;
51266;SDS011;37338;47.426;19.204;2023-12-29T13:14:02;21.90;;;14.87;;
51266;SDS011;37338;47.426;19.204;2023-12-29T13:21:55;20.33;;;15.13;;
51266;SDS011;37338;47.426;19.204;2023-12-29T13:24:20;23.40;;;14.70;;
51266;SDS011;37338;47.426;19.204;2023-12-29T13:26:55;22.10;;;16.40;;
51266;SDS011;37338;47.426;19.204;2023-12-29T13:29:23;17.23;;;15.20;;
51266;SDS011;37338;47.426;19.204;2023-12-29T13:31:50;19.97;;;15.53;;
51266;SDS011;37338;47.426;19.204;2023-12-29T13:34:19;20.90;;;15.10;;
51266;SDS011;37338;47.426;19.204;2023-12-29T13:36:49;18.47;;;14.13;;
51266;SDS011;37338;47.426;19.204;2023-12-29T13:42:04;18.67;;;14.13;;
51266;SDS011;37338;47.426;19.204;2023-12-29T13:44:30;21.40;;;13.33;;
51266;SDS011;37338;47.426;19.204;2023-12-29T13:46:56;19.07;;;14.00;;
51266;SDS011;37338;47.426;19.204;2023-12-29T13:49:22;16.27;;;13.40;;
51266;SDS011;37338;47.426;19.204;2023-12-29T13:51:47;22.43;;;13.60;;
51266;SDS011;37338;47.426;19.204;2023-12-29T13:54:13;17.93;;;14.03;;
51266;SDS011;37338;47.426;19.204;2023-12-29T13:56:38;19.20;;;13.33;;
51266;SDS011;37338;47.426;19.204;2023-12-29T13:59:04;21.03;;;15.70;;
51266;SDS011;37338;47.426;19.204;2023-12-29T14:01:35;19.00;;;14.73;;
51266;SDS011;37338;47.426;19.204;2023-12-29T14:04:02;19.00;;;15.13;;
51266;SDS011;37338;47.426;19.204;2023-12-29T14:06:29;20.30;;;16.10;;
51266;SDS011;37338;47.426;19.204;2023-12-29T14:08:57;20.53;;;15.77;;
51266;SDS011;37338;47.426;19.204;2023-12-29T14:11:22;20.67;;;16.43;;
51266;SDS011;37338;47.426;19.204;2023-12-29T14:13:48;20.90;;;16.10;;
51266;SDS011;37338;47.426;19.204;2023-12-29T14:16:13;22.17;;;16.53;;
51266;SDS011;37338;47.426;19.204;2023-12-29T14:26:30;22.47;;;17.77;;
51266;SDS011;37338;47.426;19.204;2023-12-29T14:29:05;27.27;;;18.03;;
51266;SDS011;37338;47.426;19.204;2023-12-29T14:31:35;27.67;;;19.47;;
51266;SDS011;37338;47.426;19.204;2023-12-29T14:34:02;23.47;;;18.27;;